createdAt,value
2019-02-26T00:01:18.492Z,13.93
2019-02-26T00:04:04.536Z,15.60
2019-02-26T00:06:54.038Z,39.48
2019-02-26T00:09:45.039Z,37.17
2019-02-26T00:12:35.475Z,27.15
2019-02-26T00:15:23.512Z,20.85
2019-02-26T00:18:13.976Z,15.75
2019-02-26T00:21:03.310Z,15.43
2019-02-26T00:23:53.170Z,10.15
2019-02-26T00:26:43.493Z,9.88
2019-02-26T00:29:32.502Z,9.53
2019-02-26T00:32:22.103Z,9.95
2019-02-26T00:35:10.767Z,9.63
2019-02-26T00:37:59.019Z,10.50
2019-02-26T00:40:47.662Z,9.60
2019-02-26T00:43:37.090Z,9.20
2019-02-26T00:46:27.862Z,9.25
2019-02-26T00:49:15.291Z,9.30
2019-02-26T00:52:04.585Z,9.55
2019-02-26T00:54:57.442Z,8.48
2019-02-26T00:57:44.599Z,8.18
2019-02-26T01:00:35.342Z,7.37
2019-02-26T01:03:23.951Z,7.47
2019-02-26T01:06:13.119Z,7.20
2019-02-26T01:09:03.635Z,7.30
2019-02-26T01:11:53.975Z,7.87
2019-02-26T01:14:44.083Z,6.08
2019-02-26T01:17:33.355Z,6.87
2019-02-26T01:20:24.852Z,6.70
2019-02-26T01:23:12.608Z,7.12
2019-02-26T01:26:01.219Z,7.50
2019-02-26T01:28:51.197Z,7.25
2019-02-26T01:31:40.403Z,6.25
2019-02-26T01:34:29.456Z,6.70
2019-02-26T01:37:18.421Z,6.72
2019-02-26T01:40:10.839Z,7.10
2019-02-26T01:43:00.485Z,6.85
2019-02-26T01:45:50.643Z,6.58
2019-02-26T01:48:39.514Z,6.03
2019-02-26T01:51:28.720Z,6.22
2019-02-26T01:54:17.306Z,5.62
2019-02-26T01:57:08.566Z,6.53
2019-02-26T01:59:56.023Z,6.50
2019-02-26T02:02:44.268Z,7.03
2019-02-26T02:05:33.319Z,7.00
2019-02-26T02:08:24.873Z,6.47
2019-02-26T02:11:12.915Z,6.40
2019-02-26T02:14:01.987Z,6.40
2019-02-26T02:16:51.337Z,5.97
2019-02-26T02:19:40.313Z,6.30
2019-02-26T02:22:29.602Z,5.78
2019-02-26T02:25:18.490Z,6.25
2019-02-26T02:28:07.165Z,5.12
2019-02-26T02:30:55.699Z,5.70
2019-02-26T02:33:44.706Z,6.03
2019-02-26T02:36:33.316Z,6.33
2019-02-26T02:39:24.002Z,6.00
2019-02-26T02:42:14.077Z,5.70
2019-02-26T02:45:05.073Z,5.80
2019-02-26T02:47:57.784Z,5.50
2019-02-26T02:50:42.738Z,5.33
2019-02-26T02:53:32.370Z,6.20
2019-02-26T02:56:21.172Z,4.70
2019-02-26T02:59:11.289Z,5.75
2019-02-26T03:01:59.764Z,5.80
2019-02-26T03:04:48.521Z,4.70
2019-02-26T03:07:37.476Z,5.35
2019-02-26T03:10:30.836Z,4.95
2019-02-26T03:13:16.918Z,5.65
2019-02-26T03:16:06.753Z,5.67
2019-02-26T03:18:55.612Z,4.93
2019-02-26T03:21:46.740Z,4.70
2019-02-26T03:24:35.954Z,5.62
2019-02-26T03:27:27.797Z,5.60
2019-02-26T03:30:26.154Z,4.70
2019-02-26T03:33:07.897Z,4.85
2019-02-26T03:35:56.350Z,4.10
2019-02-26T03:38:48.346Z,5.35
2019-02-26T03:41:35.882Z,5.05
2019-02-26T03:44:29.626Z,5.00
2019-02-26T03:47:16.281Z,5.30
2019-02-26T03:50:08.589Z,4.90
2019-02-26T03:52:56.046Z,4.28
2019-02-26T03:55:44.653Z,4.35
2019-02-26T03:58:33.322Z,5.00
2019-02-26T04:01:22.469Z,5.05
2019-02-26T04:04:11.514Z,5.70
2019-02-26T04:07:01.443Z,4.35
2019-02-26T04:09:53.173Z,4.10
2019-02-26T04:12:42.341Z,4.50
2019-02-26T04:15:32.831Z,4.65
2019-02-26T04:18:20.973Z,5.03
2019-02-26T04:21:12.202Z,4.70
2019-02-26T04:24:01.094Z,4.70
2019-02-26T04:27:24.012Z,5.80
2019-02-26T04:30:38.930Z,5.90
2019-02-26T04:33:59.550Z,6.35
2019-02-26T04:37:10.101Z,4.72
2019-02-26T04:40:22.677Z,4.37
2019-02-26T04:43:51.969Z,4.55
2019-02-26T04:46:44.208Z,4.33
2019-02-26T04:49:34.238Z,4.57
2019-02-26T04:52:22.621Z,5.00
2019-02-26T04:55:11.143Z,4.10
2019-02-26T04:57:59.640Z,4.83
2019-02-26T05:00:48.421Z,4.22
2019-02-26T05:03:37.292Z,3.65
2019-02-26T05:06:25.443Z,4.72
2019-02-26T05:09:13.560Z,5.37
2019-02-26T05:12:02.552Z,4.20
2019-02-26T05:14:50.921Z,4.35
2019-02-26T05:17:40.026Z,4.65
2019-02-26T05:20:28.737Z,3.93
2019-02-26T05:23:16.989Z,4.67
2019-02-26T05:26:08.225Z,4.22
2019-02-26T05:28:55.787Z,4.62
2019-02-26T05:31:44.381Z,4.55
2019-02-26T05:34:33.091Z,5.10
2019-02-26T05:37:22.126Z,5.75
2019-02-26T05:40:13.355Z,5.85
2019-02-26T05:43:01.880Z,5.53
2019-02-26T05:45:54.039Z,5.70
2019-02-26T05:48:42.907Z,5.15
2019-02-26T05:51:32.796Z,5.05
2019-02-26T05:54:24.492Z,4.80
2019-02-26T05:57:25.893Z,5.05
2019-02-26T06:00:04.561Z,5.35
2019-02-26T06:02:54.896Z,5.60
2019-02-26T06:05:46.005Z,4.97
2019-02-26T06:08:35.887Z,5.55
2019-02-26T06:11:28.359Z,5.40
2019-02-26T06:14:14.107Z,6.25
2019-02-26T06:17:02.942Z,6.85
2019-02-26T06:19:51.528Z,8.15
2019-02-26T06:22:39.964Z,7.55
2019-02-26T06:25:28.483Z,7.10
2019-02-26T06:28:18.569Z,5.75
2019-02-26T06:31:07.283Z,7.22
2019-02-26T06:33:56.506Z,6.30
2019-02-26T06:36:46.590Z,5.67
2019-02-26T06:39:36.306Z,6.55
2019-02-26T06:42:25.080Z,6.40
2019-02-26T06:45:16.217Z,7.10
2019-02-26T06:48:03.396Z,6.97
2019-02-26T06:50:52.454Z,6.62
2019-02-26T06:53:45.071Z,4.83
2019-02-26T06:56:34.447Z,5.90
2019-02-26T06:59:29.569Z,5.92
2019-02-26T07:02:19.253Z,6.25
2019-02-26T07:05:09.781Z,6.90
2019-02-26T07:07:59.577Z,5.70
2019-02-26T07:10:49.140Z,5.40
2019-02-26T07:13:39.173Z,4.70
2019-02-26T07:16:27.338Z,5.53
2019-02-26T07:19:16.748Z,4.90
2019-02-26T07:22:07.713Z,4.40
2019-02-26T07:24:55.351Z,4.75
2019-02-26T07:27:43.682Z,5.20
2019-02-26T07:30:32.608Z,4.60
2019-02-26T07:33:22.645Z,4.20
2019-02-26T07:36:10.911Z,5.05
2019-02-26T07:38:59.971Z,4.70
2019-02-26T07:41:49.314Z,4.78
2019-02-26T07:44:38.564Z,4.50
2019-02-26T07:47:28.886Z,4.75
2019-02-26T07:50:17.730Z,4.37
2019-02-26T07:53:06.860Z,4.90
2019-02-26T07:55:56.864Z,4.05
2019-02-26T07:58:45.784Z,4.55
2019-02-26T08:01:35.437Z,4.03
2019-02-26T08:04:24.699Z,4.83
2019-02-26T08:07:13.051Z,4.75
2019-02-26T08:10:01.237Z,5.40
2019-02-26T08:12:49.824Z,4.55
2019-02-26T08:15:39.921Z,4.78
2019-02-26T08:18:28.707Z,4.08
2019-02-26T08:21:17.671Z,4.45
2019-02-26T08:24:07.355Z,4.75
2019-02-26T08:26:55.745Z,4.33
2019-02-26T08:29:43.820Z,4.60
2019-02-26T08:32:32.223Z,4.45
2019-02-26T08:35:20.796Z,4.60
2019-02-26T08:38:09.809Z,4.85
2019-02-26T08:40:58.155Z,4.12
2019-02-26T08:43:49.616Z,4.42
2019-02-26T08:46:37.840Z,4.15
2019-02-26T08:49:27.501Z,3.80
2019-02-26T08:52:17.515Z,4.22
2019-02-26T08:55:07.205Z,4.20
2019-02-26T08:57:56.642Z,4.60
2019-02-26T09:00:45.721Z,4.25
2019-02-26T09:03:40.721Z,4.87
2019-02-26T09:06:24.487Z,5.65
2019-02-26T09:09:13.279Z,4.47
2019-02-26T09:12:03.220Z,4.42
2019-02-26T09:14:52.388Z,4.00
2019-02-26T09:17:42.143Z,4.25
2019-02-26T09:20:31.400Z,5.08
2019-02-26T09:23:21.174Z,4.87
2019-02-26T09:26:09.894Z,5.17
2019-02-26T09:28:58.966Z,3.72
2019-02-26T09:31:48.108Z,4.65
2019-02-26T09:34:37.974Z,5.50
2019-02-26T09:37:26.635Z,6.92
2019-02-26T09:40:17.190Z,5.95
2019-02-26T09:43:06.611Z,4.00
2019-02-26T09:45:54.892Z,5.20
2019-02-26T09:48:45.300Z,4.45
2019-02-26T09:51:35.312Z,4.12
2019-02-26T09:54:23.480Z,4.28
2019-02-26T09:57:15.547Z,3.50
2019-02-26T10:00:03.342Z,3.87
2019-02-26T10:02:52.239Z,3.95
2019-02-26T10:05:41.503Z,4.10
2019-02-26T10:08:30.719Z,4.03
2019-02-26T10:11:21.225Z,3.58
2019-02-26T10:14:10.311Z,3.10
2019-02-26T10:16:59.685Z,3.83
2019-02-26T10:19:48.441Z,4.40
2019-02-26T10:22:38.507Z,4.20
2019-02-26T10:25:31.077Z,3.30
2019-02-26T10:28:18.992Z,3.90
2019-02-26T10:31:09.623Z,4.92
2019-02-26T10:33:57.416Z,5.67
2019-02-26T10:36:48.690Z,4.30
2019-02-26T10:39:35.945Z,5.00
2019-02-26T10:42:24.366Z,4.00
2019-02-26T10:45:13.674Z,4.20
2019-02-26T10:48:01.932Z,3.67
2019-02-26T10:50:51.872Z,4.03
2019-02-26T10:53:40.856Z,4.17
2019-02-26T10:56:30.693Z,3.93
2019-02-26T10:59:20.143Z,3.67
2019-02-26T11:02:08.849Z,3.50
2019-02-26T11:04:57.441Z,3.80
2019-02-26T11:07:45.975Z,3.90
2019-02-26T11:10:39.322Z,2.90
2019-02-26T11:13:25.642Z,2.90
2019-02-26T11:16:22.905Z,4.03
2019-02-26T11:19:06.980Z,3.70
2019-02-26T11:21:57.624Z,3.40
2019-02-26T11:24:44.895Z,4.00
2019-02-26T11:27:35.244Z,3.70
2019-02-26T11:30:25.849Z,4.30
2019-02-26T11:33:15.599Z,3.33
2019-02-26T11:36:05.574Z,3.20
2019-02-26T11:38:54.443Z,3.00
2019-02-26T11:41:43.176Z,2.63
2019-02-26T11:44:32.067Z,2.30
2019-02-26T11:47:20.650Z,2.63
2019-02-26T11:50:15.235Z,3.00
2019-02-26T11:53:03.959Z,3.13
2019-02-26T11:55:54.481Z,4.57
2019-02-26T11:58:42.537Z,3.60
2019-02-26T12:01:32.225Z,4.57
2019-02-26T12:04:20.833Z,4.80
2019-02-26T12:07:09.941Z,5.00
2019-02-26T12:10:04.685Z,5.70
2019-02-26T12:12:51.350Z,4.80
2019-02-26T12:15:42.738Z,5.10
2019-02-26T12:18:29.888Z,4.20
2019-02-26T12:21:18.355Z,4.70
2019-02-26T12:24:09.231Z,4.23
2019-02-26T12:26:57.208Z,4.40
2019-02-26T12:29:48.307Z,3.87
2019-02-26T12:32:35.951Z,4.10
2019-02-26T12:35:25.285Z,3.60
2019-02-26T12:38:18.788Z,2.90
2019-02-26T12:41:08.176Z,3.43
2019-02-26T12:43:53.877Z,3.00
2019-02-26T12:46:42.040Z,2.40
2019-02-26T12:49:33.252Z,2.67
2019-02-26T12:52:21.881Z,2.33
2019-02-26T12:55:11.814Z,1.80
2019-02-26T12:58:00.269Z,2.03
2019-02-26T13:00:48.600Z,2.20
2019-02-26T13:03:39.790Z,2.10
2019-02-26T13:06:27.462Z,2.30
2019-02-26T13:09:16.196Z,2.37
2019-02-26T13:12:07.499Z,2.60
2019-02-26T13:15:02.450Z,2.90
2019-02-26T13:17:48.898Z,2.70
2019-02-26T13:20:35.979Z,2.30
2019-02-26T13:23:24.119Z,2.57
2019-02-26T13:26:14.410Z,3.00
2019-02-26T13:29:02.271Z,3.10
2019-02-26T13:31:56.547Z,2.03
2019-02-26T13:34:40.882Z,2.43
2019-02-26T13:37:34.668Z,2.10
2019-02-26T13:40:21.035Z,2.23
2019-02-26T13:43:10.100Z,2.27
2019-02-26T13:45:58.534Z,2.80
2019-02-26T13:48:47.016Z,3.30
2019-02-26T13:51:36.239Z,2.80
2019-02-26T13:54:25.392Z,3.70
2019-02-26T13:57:13.856Z,3.20
2019-02-26T14:00:03.408Z,3.55
2019-02-26T14:02:52.189Z,2.65
2019-02-26T14:05:40.593Z,3.35
2019-02-26T14:08:29.016Z,3.37
2019-02-26T14:11:18.005Z,3.90
2019-02-26T14:14:06.288Z,3.35
2019-02-26T14:16:54.852Z,3.62
2019-02-26T14:19:43.862Z,3.75
2019-02-26T14:22:32.998Z,3.08
2019-02-26T14:25:21.494Z,3.13
2019-02-26T14:28:10.209Z,3.40
2019-02-26T14:30:58.635Z,3.55
2019-02-26T14:33:47.304Z,3.20
2019-02-26T14:36:36.094Z,3.53
2019-02-26T14:39:25.228Z,3.60
2019-02-26T14:42:14.060Z,3.27
2019-02-26T14:45:02.799Z,2.90
2019-02-26T14:47:51.899Z,3.60
2019-02-26T14:50:40.738Z,4.20
2019-02-26T14:53:29.730Z,4.10
2019-02-26T14:56:17.927Z,4.50
2019-02-26T14:59:06.592Z,4.07
2019-02-26T15:01:54.976Z,5.10
2019-02-26T15:04:43.461Z,3.98
2019-02-26T15:07:31.727Z,3.33
2019-02-26T15:10:20.692Z,3.03
2019-02-26T15:13:09.566Z,3.10
2019-02-26T15:15:58.572Z,3.87
2019-02-26T15:18:47.242Z,4.60
2019-02-26T15:21:35.949Z,5.03
2019-02-26T15:24:25.280Z,4.87
2019-02-26T15:27:13.962Z,4.57
2019-02-26T15:30:02.237Z,4.17
2019-02-26T15:32:51.044Z,4.77
2019-02-26T15:35:39.947Z,3.70
2019-02-26T15:38:28.536Z,3.95
2019-02-26T15:41:16.836Z,3.50
2019-02-26T15:44:05.649Z,2.50
2019-02-26T15:46:55.023Z,3.00
2019-02-26T15:49:43.869Z,2.90
2019-02-26T15:52:32.557Z,2.50
2019-02-26T15:55:21.548Z,2.80
2019-02-26T15:58:11.621Z,2.80
2019-02-26T16:01:00.567Z,3.50
2019-02-26T16:03:49.348Z,3.30
2019-02-26T16:06:38.345Z,3.35
2019-02-26T16:09:27.567Z,3.70
2019-02-26T16:12:16.369Z,3.40
2019-02-26T16:15:07.974Z,3.80
2019-02-26T16:17:58.098Z,3.80
2019-02-26T16:20:45.817Z,4.05
2019-02-26T16:23:34.501Z,4.03
2019-02-26T16:26:23.251Z,4.60
2019-02-26T16:29:11.910Z,4.77
2019-02-26T16:32:02.645Z,4.30
2019-02-26T16:34:52.488Z,4.80
2019-02-26T16:37:41.598Z,4.50
2019-02-26T16:40:32.261Z,4.80
2019-02-26T16:43:21.292Z,5.10
2019-02-26T16:46:09.821Z,5.10
2019-02-26T16:48:58.821Z,5.60
2019-02-26T16:51:47.677Z,5.78
2019-02-26T16:54:36.272Z,8.83
2019-02-26T16:57:25.725Z,6.40
2019-02-26T17:00:17.110Z,5.30
2019-02-26T17:03:07.094Z,5.40
2019-02-26T17:05:56.420Z,5.03
2019-02-26T17:08:47.331Z,4.70
2019-02-26T17:11:35.426Z,5.62
2019-02-26T17:14:24.046Z,5.50
2019-02-26T17:17:12.573Z,5.30
2019-02-26T17:20:01.630Z,5.43
2019-02-26T17:22:50.094Z,5.60
2019-02-26T17:25:38.648Z,5.00
2019-02-26T17:28:27.260Z,4.78
2019-02-26T17:31:16.160Z,4.58
2019-02-26T17:34:05.464Z,5.67
2019-02-26T17:36:53.547Z,4.75
2019-02-26T17:39:42.086Z,12.90
2019-02-26T17:42:31.025Z,18.32
2019-02-26T17:45:20.150Z,13.88
2019-02-26T17:48:08.591Z,5.67
2019-02-26T17:50:57.944Z,5.50
2019-02-26T17:53:47.021Z,5.90
2019-02-26T17:56:35.602Z,5.80
2019-02-26T17:59:24.121Z,4.97
2019-02-26T18:02:12.854Z,4.30
2019-02-26T18:05:01.910Z,4.80
2019-02-26T18:07:50.380Z,4.47
2019-02-26T18:10:39.586Z,5.47
2019-02-26T18:13:28.684Z,5.83
2019-02-26T18:16:20.041Z,4.83
2019-02-26T18:19:12.147Z,4.60
2019-02-26T18:21:58.783Z,7.30
2019-02-26T18:24:47.860Z,5.57
2019-02-26T18:27:36.883Z,5.70
2019-02-26T18:30:27.360Z,7.60
2019-02-26T18:33:16.320Z,8.30
2019-02-26T18:36:05.758Z,8.00
2019-02-26T18:38:54.917Z,6.70
2019-02-26T18:41:50.513Z,5.83
2019-02-26T18:44:33.976Z,5.10
2019-02-26T18:47:22.923Z,4.62
2019-02-26T18:50:12.010Z,5.43
2019-02-26T18:53:02.403Z,8.65
2019-02-26T18:55:51.174Z,11.60
2019-02-26T18:58:40.148Z,13.87
2019-02-26T19:01:30.799Z,10.60
2019-02-26T19:04:19.367Z,11.80
2019-02-26T19:07:08.363Z,13.53
2019-02-26T19:09:57.821Z,13.62
2019-02-26T19:12:46.498Z,9.33
2019-02-26T19:15:35.160Z,12.65
2019-02-26T19:18:23.811Z,9.30
2019-02-26T19:21:12.386Z,9.00
2019-02-26T19:24:04.418Z,7.85
2019-02-26T19:26:51.904Z,6.70
2019-02-26T19:29:40.790Z,6.12
2019-02-26T19:32:29.244Z,8.33
2019-02-26T19:35:17.841Z,10.23
2019-02-26T19:38:11.846Z,8.08
2019-02-26T19:41:05.370Z,7.60
2019-02-26T19:43:54.338Z,7.15
2019-02-26T19:46:43.347Z,8.48
2019-02-26T19:49:32.377Z,8.13
2019-02-26T19:52:21.951Z,11.45
2019-02-26T19:55:16.874Z,11.95
2019-02-26T19:58:07.347Z,9.73
2019-02-26T20:00:57.830Z,11.88
2019-02-26T20:03:46.493Z,13.35
2019-02-26T20:06:35.332Z,13.50
2019-02-26T20:09:24.461Z,8.98
2019-02-26T20:12:13.607Z,9.90
2019-02-26T20:15:02.417Z,9.08
2019-02-26T20:17:51.193Z,8.60
2019-02-26T20:20:41.031Z,9.67
2019-02-26T20:23:30.774Z,9.15
2019-02-26T20:26:20.491Z,8.60
2019-02-26T20:29:09.168Z,9.93
2019-02-26T20:31:58.282Z,9.13
2019-02-26T20:34:47.018Z,8.40
2019-02-26T20:37:36.342Z,10.88
2019-02-26T20:40:25.147Z,9.10
2019-02-26T20:43:13.894Z,7.75
2019-02-26T20:46:03.053Z,8.58
2019-02-26T20:48:52.414Z,7.17
2019-02-26T20:51:41.668Z,7.20
2019-02-26T20:54:30.601Z,7.25
2019-02-26T20:57:19.506Z,7.85
2019-02-26T21:00:10.312Z,7.10
2019-02-26T21:02:58.885Z,7.50
2019-02-26T21:05:47.940Z,7.50
2019-02-26T21:08:36.362Z,7.40
2019-02-26T21:11:25.289Z,8.48
2019-02-26T21:14:13.976Z,6.72
2019-02-26T21:17:02.872Z,7.42
2019-02-26T21:19:51.992Z,7.97
2019-02-26T21:22:40.981Z,7.30
2019-02-26T21:25:29.444Z,6.12
2019-02-26T21:28:18.500Z,6.53
2019-02-26T21:31:07.777Z,7.10
2019-02-26T21:33:57.084Z,5.40
2019-02-26T21:36:46.643Z,5.70
2019-02-26T21:39:35.245Z,5.53
2019-02-26T21:42:23.906Z,5.87
2019-02-26T21:45:16.118Z,6.28
2019-02-26T21:48:03.971Z,6.35
2019-02-26T21:50:54.510Z,5.90
2019-02-26T21:53:43.126Z,8.48
2019-02-26T21:56:32.039Z,10.85
2019-02-26T21:59:21.153Z,11.15
2019-02-26T22:02:09.513Z,12.28
2019-02-26T22:04:58.011Z,17.80
2019-02-26T22:07:52.100Z,11.28
2019-02-26T22:10:40.212Z,8.25
2019-02-26T22:13:29.270Z,7.35
2019-02-26T22:16:18.819Z,7.45
2019-02-26T22:19:07.731Z,8.63
2019-02-26T22:21:56.844Z,8.55
2019-02-26T22:24:46.165Z,7.85
2019-02-26T22:27:36.163Z,8.93
2019-02-26T22:30:26.007Z,9.00
2019-02-26T22:33:14.182Z,7.33
2019-02-26T22:36:02.265Z,7.72
2019-02-26T22:38:50.381Z,6.50
2019-02-26T22:41:38.930Z,6.62
2019-02-26T22:44:27.221Z,6.53
2019-02-26T22:47:15.871Z,6.58
2019-02-26T22:50:05.370Z,6.03
2019-02-26T22:52:54.144Z,5.53
2019-02-26T22:55:42.403Z,5.30
2019-02-26T22:58:35.650Z,5.67
2019-02-26T23:01:30.774Z,5.10
2019-02-26T23:04:19.634Z,5.60
2019-02-26T23:07:10.020Z,5.85
2019-02-26T23:09:59.227Z,5.53
2019-02-26T23:12:48.401Z,4.83
2019-02-26T23:15:37.236Z,5.20
2019-02-26T23:18:28.536Z,5.28
2019-02-26T23:21:16.291Z,5.00
2019-02-26T23:24:05.777Z,5.55
2019-02-26T23:26:55.286Z,5.47
2019-02-26T23:29:44.661Z,4.55
2019-02-26T23:32:33.429Z,4.42
2019-02-26T23:35:22.519Z,4.67
2019-02-26T23:38:11.060Z,4.90
2019-02-26T23:41:00.331Z,4.80
2019-02-26T23:43:49.686Z,4.40
2019-02-26T23:46:38.284Z,3.72
2019-02-26T23:49:27.170Z,5.10
2019-02-26T23:52:16.259Z,5.58
2019-02-26T23:55:05.547Z,5.20
2019-02-26T23:57:57.755Z,4.87
